createdAt,value
2022-12-25T00:01:51.570Z,98868.59
2022-12-25T00:06:56.786Z,98874.59
2022-12-25T00:12:00.268Z,98878.06
2022-12-25T00:17:04.232Z,98878.09
2022-12-25T00:22:09.399Z,98884.03
2022-12-25T00:27:13.053Z,98887.53
2022-12-25T00:32:17.137Z,98890.13
2022-12-25T00:37:22.050Z,98896.00
2022-12-25T00:42:27.044Z,98893.28
2022-12-25T00:47:31.035Z,98895.03
2022-12-25T00:52:36.281Z,98888.84
2022-12-25T00:57:39.856Z,98905.97
2022-12-25T01:02:43.413Z,98902.53
2022-12-25T01:07:48.642Z,98909.28
2022-12-25T01:12:53.110Z,98915.28
2022-12-25T01:17:56.630Z,98922.22
2022-12-25T01:23:01.474Z,98918.78
2022-12-25T01:28:05.179Z,98914.38
2022-12-25T01:33:08.607Z,98911.69
2022-12-25T01:38:13.452Z,98916.66
2022-12-25T01:43:24.557Z,98916.66
2022-12-25T01:48:31.819Z,98921.72
2022-12-25T01:53:37.114Z,98930.34
2022-12-25T01:58:40.669Z,98931.22
2022-12-25T02:03:44.191Z,98925.13
2022-12-25T02:08:49.128Z,98928.53
2022-12-25T02:13:53.103Z,98925.94
2022-12-25T02:19:04.588Z,98926.69
2022-12-25T02:24:27.782Z,98931.81
2022-12-25T02:29:39.427Z,98937.84
2022-12-25T02:34:49.414Z,98935.94
2022-12-25T02:40:02.024Z,98948.13
2022-12-25T02:45:26.627Z,98974.50
2022-12-25T02:50:47.655Z,98964.28
2022-12-25T02:56:09.609Z,98963.34
2022-12-25T03:01:35.302Z,98974.53
2022-12-25T03:06:46.839Z,98970.97
2022-12-25T03:11:58.632Z,98971.88
2022-12-25T03:17:03.921Z,98982.81
2022-12-25T03:22:36.912Z,98987.88
2022-12-25T03:27:43.264Z,98978.34
2022-12-25T03:32:58.882Z,98987.03
2022-12-25T03:38:33.073Z,98986.88
2022-12-25T03:44:03.903Z,98991.16
2022-12-25T03:49:40.429Z,98983.34
2022-12-25T03:55:04.482Z,98992.03
2022-12-25T04:00:26.797Z,99001.41
2022-12-25T04:05:48.851Z,99011.06
2022-12-25T04:11:09.722Z,99014.50
2022-12-25T04:16:30.646Z,99029.06
2022-12-25T04:21:52.914Z,99033.38
2022-12-25T04:27:14.037Z,99031.53
2022-12-25T04:32:34.978Z,99054.03
2022-12-25T04:37:39.807Z,99061.47
2022-12-25T04:42:43.263Z,99068.06
2022-12-25T04:47:46.729Z,99068.22
2022-12-25T04:52:51.515Z,99074.03
2022-12-25T04:57:54.881Z,99069.19
2022-12-25T05:02:59.391Z,99080.31
2022-12-25T05:08:05.921Z,99082.72
2022-12-25T05:13:09.395Z,99084.53
2022-12-25T05:18:13.077Z,99084.38
2022-12-25T05:23:17.935Z,99093.81
2022-12-25T05:28:21.646Z,99095.41
2022-12-25T05:33:25.016Z,99111.75
2022-12-25T05:38:29.873Z,99115.94
2022-12-25T05:43:33.505Z,99120.03
2022-12-25T05:48:38.669Z,99135.34
2022-12-25T05:53:44.440Z,99135.38
2022-12-25T05:58:48.349Z,99147.47
2022-12-25T06:03:52.066Z,99139.91
2022-12-25T06:08:57.352Z,99162.41
2022-12-25T06:14:01.268Z,99149.03
2022-12-25T06:19:04.716Z,99151.19
2022-12-25T06:24:09.872Z,99160.41
2022-12-25T06:29:13.796Z,99162.53
2022-12-25T06:34:17.674Z,99167.84
2022-12-25T06:39:22.929Z,99164.63
2022-12-25T06:44:26.443Z,99168.22
2022-12-25T06:49:30.049Z,99163.38
2022-12-25T06:54:34.868Z,99169.44
2022-12-25T06:59:38.357Z,99161.88
2022-12-25T07:04:44.031Z,99166.44
2022-12-25T07:09:48.843Z,99171.78
2022-12-25T07:14:55.522Z,99185.63
2022-12-25T07:19:58.909Z,99187.47
2022-12-25T07:25:03.791Z,99201.63
2022-12-25T07:30:08.994Z,99211.25
2022-12-25T07:35:12.455Z,99215.69
2022-12-25T07:40:17.490Z,99225.28
2022-12-25T07:45:20.879Z,99233.34
2022-12-25T07:50:24.671Z,99236.09
2022-12-25T07:55:29.918Z,99258.75
2022-12-25T08:00:33.437Z,99263.41
2022-12-25T08:05:37.177Z,99273.19
2022-12-25T08:10:46.695Z,99270.03
2022-12-25T08:15:50.745Z,99271.06
2022-12-25T08:20:54.505Z,99277.28
2022-12-25T08:26:05.050Z,99282.78
2022-12-25T08:31:11.259Z,99288.16
2022-12-25T08:36:15.158Z,99300.41
2022-12-25T08:41:20.933Z,99290.94
2022-12-25T08:46:24.671Z,99282.41
2022-12-25T08:51:28.556Z,99273.78
2022-12-25T08:56:33.743Z,99274.78
2022-12-25T09:01:37.231Z,99271.41
2022-12-25T09:06:40.711Z,99274.03
2022-12-25T09:11:45.883Z,99271.31
2022-12-25T09:16:51.621Z,99275.59
2022-12-25T09:21:55.259Z,99268.59
2022-12-25T09:27:00.277Z,99283.38
2022-12-25T09:32:03.755Z,99283.31
2022-12-25T09:37:07.192Z,99278.06
2022-12-25T09:42:18.213Z,99276.78
2022-12-25T09:47:24.714Z,99271.50
2022-12-25T09:52:36.521Z,99272.38
2022-12-25T09:57:41.722Z,99267.72
2022-12-25T10:03:27.949Z,99279.59
2022-12-25T10:08:54.851Z,99274.34
2022-12-25T10:14:14.821Z,99288.50
2022-12-25T10:19:36.395Z,99294.09
2022-12-25T10:24:45.135Z,99298.97
2022-12-25T10:29:55.107Z,99299.50
2022-12-25T10:34:58.912Z,99295.63
2022-12-25T10:40:02.380Z,99289.38
2022-12-25T10:45:10.647Z,99290.78
2022-12-25T10:50:20.794Z,99284.38
2022-12-25T10:55:28.682Z,99287.31
2022-12-25T11:00:34.911Z,99291.47
2022-12-25T11:05:38.399Z,99304.84
2022-12-25T11:10:44.154Z,99305.13
2022-12-25T11:15:50.727Z,99314.34
2022-12-25T11:20:56.520Z,99315.16
2022-12-25T11:26:02.464Z,99328.41
2022-12-25T11:31:10.308Z,99338.78
2022-12-25T11:36:19.683Z,99349.94
2022-12-25T11:41:28.156Z,99347.78
2022-12-25T11:46:41.364Z,99360.78
2022-12-25T11:51:48.916Z,99363.22
2022-12-25T11:56:52.568Z,99364.91
2022-12-25T12:02:03.007Z,99365.97
2022-12-25T12:07:15.860Z,99375.97
2022-12-25T12:12:28.362Z,99391.38
2022-12-25T12:17:33.804Z,99396.94
2022-12-25T12:22:37.675Z,99396.22
2022-12-25T12:27:42.564Z,99394.50
2022-12-25T12:32:52.320Z,99402.09
2022-12-25T12:37:58.806Z,99404.81
2022-12-25T12:43:02.814Z,99413.59
2022-12-25T12:48:17.934Z,99412.09
2022-12-25T12:53:32.256Z,99429.63
2022-12-25T12:58:38.482Z,99425.22
2022-12-25T13:04:07.607Z,99428.75
2022-12-25T13:09:27.017Z,99434.84
2022-12-25T13:14:30.533Z,99449.56
2022-12-25T13:19:37.120Z,99465.97
2022-12-25T13:24:40.959Z,99465.91
2022-12-25T13:29:44.433Z,99482.44
2022-12-25T13:35:01.007Z,99473.00
2022-12-25T13:40:08.009Z,99473.00
2022-12-25T13:45:23.501Z,99466.94
2022-12-25T13:50:31.380Z,99476.41
2022-12-25T13:55:35.465Z,99482.28
2022-12-25T14:00:41.751Z,99494.31
2022-12-25T14:05:46.944Z,99513.13
2022-12-25T14:10:54.358Z,99520.84
2022-12-25T14:15:59.310Z,99535.44
2022-12-25T14:21:07.512Z,99536.25
2022-12-25T14:26:16.874Z,99539.75
2022-12-25T14:31:22.245Z,99541.38
2022-12-25T14:36:27.952Z,99540.31
2022-12-25T14:41:37.917Z,99541.13
2022-12-25T14:46:41.688Z,99552.25
2022-12-25T14:51:46.920Z,99561.78
2022-12-25T14:56:52.655Z,99562.22
2022-12-25T15:01:58.778Z,99563.88
2022-12-25T15:07:09.735Z,99574.25
2022-12-25T15:12:13.752Z,99588.41
2022-12-25T15:17:27.209Z,99592.56
2022-12-25T15:22:54.143Z,99602.59
2022-12-25T15:27:56.338Z,99609.59
2022-12-25T15:33:00.031Z,99610.25
2022-12-25T15:38:04.801Z,99621.50
2022-12-25T15:43:20.878Z,99619.66
2022-12-25T15:48:34.525Z,99628.28
2022-12-25T15:53:39.665Z,99632.50
2022-12-25T15:58:43.405Z,99625.72
2022-12-25T16:03:47.546Z,99632.50
2022-12-25T16:08:52.437Z,99633.09
2022-12-25T16:13:55.867Z,99635.66
2022-12-25T16:18:59.540Z,99638.97
2022-12-25T16:24:05.135Z,99637.91
2022-12-25T16:29:08.774Z,99638.78
2022-12-25T16:34:12.360Z,99638.94
2022-12-25T16:39:17.193Z,99632.13
2022-12-25T16:44:23.369Z,99634.81
2022-12-25T16:49:26.814Z,99652.13
2022-12-25T16:54:32.037Z,99658.63
2022-12-25T16:59:36.099Z,99666.16
2022-12-25T17:04:40.869Z,99674.84
2022-12-25T17:09:48.608Z,99685.13
2022-12-25T17:14:53.527Z,99694.66
2022-12-25T17:19:57.589Z,99695.38
2022-12-25T17:25:02.746Z,99698.44
2022-12-25T17:30:08.015Z,99688.34
2022-12-25T17:35:11.606Z,99685.84
2022-12-25T17:40:17.301Z,99691.75
2022-12-25T17:45:21.225Z,99698.31
2022-12-25T17:50:25.821Z,99695.53
2022-12-25T17:55:34.405Z,99692.03
2022-12-25T18:00:39.529Z,99699.75
2022-12-25T18:05:43.131Z,99686.97
2022-12-25T18:10:48.123Z,99688.03
2022-12-25T18:15:52.032Z,99681.94
2022-12-25T18:20:55.487Z,99682.16
2022-12-25T18:26:04.843Z,99691.44
2022-12-25T18:31:10.811Z,99689.09
2022-12-25T18:36:16.140Z,99693.38
2022-12-25T18:41:22.360Z,99704.19
2022-12-25T18:46:27.531Z,99707.19
2022-12-25T18:51:36.568Z,99706.88
2022-12-25T18:56:42.080Z,99699.25
2022-12-25T19:01:46.417Z,99712.22
2022-12-25T19:06:50.498Z,99709.59
2022-12-25T19:11:56.964Z,99706.16
2022-12-25T19:17:00.745Z,99716.63
2022-12-25T19:22:04.222Z,99714.50
2022-12-25T19:27:10.141Z,99726.28
2022-12-25T19:32:13.658Z,99738.19
2022-12-25T19:37:17.334Z,99730.44
2022-12-25T19:42:22.213Z,99738.25
2022-12-25T19:47:25.753Z,99740.00
2022-12-25T19:52:29.488Z,99744.44
2022-12-25T19:57:34.412Z,99743.06
2022-12-25T20:02:37.994Z,99743.13
2022-12-25T20:07:41.554Z,99750.25
2022-12-25T20:12:46.524Z,99751.38
2022-12-25T20:17:49.953Z,99763.13
2022-12-25T20:22:53.447Z,99761.66
2022-12-25T20:27:58.587Z,99761.19
2022-12-25T20:33:02.002Z,99759.63
2022-12-25T20:38:05.725Z,99762.41
2022-12-25T20:43:11.031Z,99779.00
2022-12-25T20:48:15.153Z,99775.31
2022-12-25T20:53:19.727Z,99781.44
2022-12-25T20:58:24.852Z,99786.88
2022-12-25T21:03:28.345Z,99789.91
2022-12-25T21:08:32.176Z,99792.66
2022-12-25T21:13:38.760Z,99803.41
2022-12-25T21:18:42.289Z,99823.69
2022-12-25T21:23:46.732Z,99823.38
2022-12-25T21:28:54.977Z,99818.69
2022-12-25T21:33:59.443Z,99822.97
2022-12-25T21:39:05.242Z,99820.00
2022-12-25T21:44:10.297Z,99828.75
2022-12-25T21:49:34.049Z,99819.09
2022-12-25T21:54:37.934Z,99819.16
2022-12-25T21:59:42.788Z,99819.94
2022-12-25T22:04:46.227Z,99823.41
2022-12-25T22:09:51.669Z,99825.06
2022-12-25T22:15:02.772Z,99818.06
2022-12-25T22:20:11.089Z,99821.53
2022-12-25T22:25:16.127Z,99820.28
2022-12-25T22:30:22.861Z,99824.03
2022-12-25T22:35:26.373Z,99839.66
2022-12-25T22:40:29.919Z,99848.59
2022-12-25T22:45:34.861Z,99869.84
2022-12-25T22:50:38.405Z,99864.19
2022-12-25T22:55:47.120Z,99862.97
2022-12-25T23:00:52.037Z,99850.19
2022-12-25T23:05:56.523Z,99860.22
2022-12-25T23:11:03.023Z,99865.56
2022-12-25T23:16:14.057Z,99867.56
2022-12-25T23:21:36.850Z,99877.06
2022-12-25T23:26:40.301Z,99880.31
2022-12-25T23:31:53.652Z,99884.63
2022-12-25T23:36:57.475Z,99889.50
2022-12-25T23:42:01.472Z,99909.34
2022-12-25T23:47:06.731Z,99910.41
2022-12-25T23:52:12.362Z,99924.34
2022-12-25T23:57:15.786Z,99918.22
